SWR9LB LSZH-EPKK
Flight info
| Callsign | SWR9LB |
|---|---|
| Flight time | N/A |
| Altitude | 35000 |
| Route | DEGES Z2 XEBIX N871 TULSI/N0440F310 N871 BADVI/N0446F350 L725 INPUL DCT LOKVU DCT PADKA |
| Aircraft | A320/M-SDE3FGHIRWY/LB1 |
Departure
| Time | 2026-05-07 13:08 |
|---|---|
| Airport | Zürich Airport (LSZH) |
Arrival
| Time | N/A |
|---|---|
| Airport | Kraków John Paul II International Airport (EPKK) |
| Time | Latitude | Longitude | Altitude | Speed | Heading |
|---|---|---|---|---|---|
| 2026-05-07 12:38 | 47.45409 | 8.55946 | 1411 ft | 0 kts | 186° |
| 2026-05-07 12:38 | 47.45411 | 8.55946 | 1411 ft | 0 kts | 186° |
| 2026-05-07 13:02 | 47.45429 | 8.55950 | 1413 ft | 4 kts | 192° |
| 2026-05-07 13:02 | 47.45455 | 8.55955 | 1412 ft | 4 kts | 170° |
| 2026-05-07 13:02 | 47.45479 | 8.55944 | 1411 ft | 4 kts | 147° |
| 2026-05-07 13:02 | 47.45496 | 8.55917 | 1409 ft | 4 kts | 103° |
| 2026-05-07 13:03 | 47.45497 | 8.55907 | 1408 ft | 0 kts | 96° |
| 2026-05-07 13:04 | 47.45496 | 8.55926 | 1410 ft | 7 kts | 96° |
| 2026-05-07 13:05 | 47.45486 | 8.56061 | 1411 ft | 17 kts | 96° |
| 2026-05-07 13:05 | 47.45493 | 8.56234 | 1414 ft | 14 kts | 45° |
| 2026-05-07 13:05 | 47.45550 | 8.56346 | 1413 ft | 13 kts | 52° |
| 2026-05-07 13:05 | 47.45593 | 8.56475 | 1416 ft | 15 kts | 87° |
| 2026-05-07 13:06 | 47.45584 | 8.56635 | 1417 ft | 17 kts | 96° |
| 2026-05-07 13:06 | 47.45571 | 8.56818 | 1420 ft | 19 kts | 95° |
| 2026-05-07 13:06 | 47.45580 | 8.56984 | 1422 ft | 16 kts | 48° |
| 2026-05-07 13:06 | 47.45655 | 8.56994 | 1424 ft | 5 kts | 295° |
| 2026-05-07 13:07 | 47.45663 | 8.56960 | 1424 ft | 15 kts | 288° |
| 2026-05-07 13:07 | 47.45703 | 8.56441 | 1416 ft | 87 kts | 276° |
| 2026-05-07 13:07 | 47.45788 | 8.55241 | 1404 ft | 146 kts | 276° |
| 2026-05-07 13:07 | 47.45904 | 8.53661 | 1916 ft | 154 kts | 277° |
| 2026-05-07 13:08 | 47.46018 | 8.52093 | 2743 ft | 152 kts | 276° |
| 2026-05-07 13:08 | 47.46122 | 8.50596 | 3406 ft | 155 kts | 276° |
| 2026-05-07 13:08 | 47.46237 | 8.48907 | 3739 ft | 175 kts | 273° |
| 2026-05-07 13:08 | 47.45906 | 8.47108 | 4032 ft | 197 kts | 232° |
| 2026-05-07 13:09 | 47.44857 | 8.45687 | 4342 ft | 212 kts | 223° |
| 2026-05-07 13:09 | 47.43886 | 8.44149 | 5734 ft | 188 kts | 235° |
| 2026-05-07 13:09 | 47.43207 | 8.42648 | 7295 ft | 165 kts | 245° |
| 2026-05-07 13:09 | 47.42727 | 8.41140 | 8279 ft | 169 kts | 249° |
| 2026-05-07 13:10 | 47.42179 | 8.39542 | 8910 ft | 187 kts | 249° |
| 2026-05-07 13:10 | 47.41477 | 8.37853 | 9516 ft | 192 kts | 266° |
| 2026-05-07 13:10 | 47.41504 | 8.36151 | 10038 ft | 153 kts | 290° |
| 2026-05-07 13:10 | 47.42365 | 8.34940 | 8035 ft | 237 kts | 352° |
| 2026-05-07 13:11 | 47.44014 | 8.35758 | 8117 ft | 272 kts | 37° |
| 2026-05-07 13:11 | 47.45429 | 8.37985 | 8288 ft | 319 kts | 60° |
| 2026-05-07 13:11 | 47.46058 | 8.41101 | 9290 ft | 314 kts | 88° |
| 2026-05-07 13:11 | 47.46103 | 8.44275 | 10475 ft | 310 kts | 90° |
| 2026-05-07 13:12 | 47.46127 | 8.47581 | 10823 ft | 333 kts | 90° |
| 2026-05-07 13:12 | 47.46143 | 8.51111 | 11165 ft | 352 kts | 91° |
| 2026-05-07 13:12 | 47.46364 | 8.54756 | 11799 ft | 361 kts | 76° |
| 2026-05-07 13:12 | 47.47321 | 8.58208 | 12534 ft | 366 kts | 63° |
| 2026-05-07 13:13 | 47.48460 | 8.61538 | 13336 ft | 369 kts | 63° |
| 2026-05-07 13:13 | 47.49607 | 8.64965 | 14092 ft | 374 kts | 67° |
| 2026-05-07 13:13 | 47.50198 | 8.68708 | 14735 ft | 377 kts | 86° |
| 2026-05-07 13:13 | 47.50284 | 8.72599 | 15517 ft | 380 kts | 90° |
| 2026-05-07 13:14 | 47.50047 | 8.76484 | 16183 ft | 382 kts | 105° |
| 2026-05-07 13:14 | 47.49063 | 8.80131 | 16819 ft | 384 kts | 118° |
| 2026-05-07 13:14 | 47.47824 | 8.83648 | 17444 ft | 388 kts | 118° |
| 2026-05-07 13:14 | 47.46559 | 8.87201 | 18062 ft | 393 kts | 117° |
| 2026-05-07 13:15 | 47.45524 | 8.90952 | 18615 ft | 397 kts | 107° |
| 2026-05-07 13:15 | 47.44899 | 8.94885 | 19168 ft | 400 kts | 102° |
| 2026-05-07 13:15 | 47.44326 | 8.98917 | 19729 ft | 403 kts | 102° |
| 2026-05-07 13:15 | 47.43744 | 9.02978 | 20271 ft | 406 kts | 102° |
| 2026-05-07 13:16 | 47.43152 | 9.07073 | 20802 ft | 409 kts | 102° |
| 2026-05-07 13:16 | 47.42553 | 9.11202 | 21336 ft | 412 kts | 102° |
| 2026-05-07 13:16 | 47.41956 | 9.15357 | 21850 ft | 416 kts | 101° |
| 2026-05-07 13:16 | 47.41662 | 9.19616 | 22350 ft | 419 kts | 90° |
| 2026-05-07 13:17 | 47.41863 | 9.23925 | 22827 ft | 423 kts | 80° |
| 2026-05-07 13:17 | 47.42467 | 9.28126 | 23300 ft | 426 kts | 76° |
| 2026-05-07 13:17 | 47.43126 | 9.32404 | 23811 ft | 428 kts | 77° |
| 2026-05-07 13:17 | 47.43777 | 9.36698 | 24274 ft | 429 kts | 77° |
| 2026-05-07 13:18 | 47.44426 | 9.41013 | 24702 ft | 431 kts | 77° |
| 2026-05-07 13:18 | 47.45075 | 9.45349 | 25135 ft | 433 kts | 77° |
| 2026-05-07 13:18 | 47.45724 | 9.49706 | 25572 ft | 435 kts | 77° |
| 2026-05-07 13:18 | 47.46377 | 9.54085 | 25998 ft | 437 kts | 77° |
| 2026-05-07 13:19 | 47.46948 | 9.58506 | 26403 ft | 440 kts | 83° |
| 2026-05-07 13:19 | 47.47102 | 9.62966 | 26814 ft | 442 kts | 91° |
| 2026-05-07 13:19 | 47.46886 | 9.67517 | 27218 ft | 444 kts | 94° |
| 2026-05-07 13:19 | 47.46632 | 9.72066 | 27625 ft | 446 kts | 94° |
| 2026-05-07 13:20 | 47.46375 | 9.76645 | 28027 ft | 448 kts | 94° |
| 2026-05-07 13:20 | 47.46117 | 9.81252 | 28417 ft | 450 kts | 94° |
| 2026-05-07 13:20 | 47.45858 | 9.85871 | 28791 ft | 452 kts | 94° |
| 2026-05-07 13:20 | 47.45599 | 9.90511 | 29146 ft | 454 kts | 94° |
| 2026-05-07 13:21 | 47.45339 | 9.95175 | 29502 ft | 456 kts | 94° |
| 2026-05-07 13:21 | 47.45079 | 9.99789 | 29847 ft | 458 kts | 94° |
| 2026-05-07 13:21 | 47.44810 | 10.04485 | 30175 ft | 460 kts | 94° |
| 2026-05-07 13:21 | 47.44536 | 10.09219 | 30412 ft | 464 kts | 94° |
| 2026-05-07 13:22 | 47.44259 | 10.13971 | 30710 ft | 465 kts | 94° |
| 2026-05-07 13:22 | 47.43935 | 10.18724 | 31031 ft | 466 kts | 98° |
| 2026-05-07 13:22 | 47.43330 | 10.23430 | 31348 ft | 466 kts | 101° |
| 2026-05-07 13:22 | 47.42685 | 10.28212 | 31679 ft | 467 kts | 101° |
| 2026-05-07 13:23 | 47.42057 | 10.32833 | 32005 ft | 468 kts | 102° |
| 2026-05-07 13:23 | 47.41415 | 10.37544 | 32326 ft | 468 kts | 102° |
| 2026-05-07 13:23 | 47.40871 | 10.42221 | 32637 ft | 469 kts | 96° |
| 2026-05-07 13:23 | 47.40779 | 10.47040 | 32951 ft | 471 kts | 87° |
| 2026-05-07 13:24 | 47.41190 | 10.51833 | 33228 ft | 473 kts | 78° |
| 2026-05-07 13:24 | 47.42096 | 10.56499 | 33514 ft | 474 kts | 70° |
| 2026-05-07 13:24 | 47.43231 | 10.61081 | 33811 ft | 475 kts | 70° |
| 2026-05-07 13:24 | 47.44362 | 10.65669 | 34083 ft | 477 kts | 70° |
| 2026-05-07 13:25 | 47.45495 | 10.70281 | 34337 ft | 478 kts | 70° |
| 2026-05-07 13:25 | 47.46622 | 10.74902 | 34618 ft | 479 kts | 70° |
| 2026-05-07 13:25 | 47.47749 | 10.79542 | 34887 ft | 479 kts | 70° |
| 2026-05-07 13:25 | 47.48856 | 10.84122 | 34982 ft | 480 kts | 70° |
| 2026-05-07 13:26 | 47.51085 | 10.93413 | 34983 ft | 479 kts | 71° |
| 2026-05-07 13:26 | 47.53319 | 11.02722 | 34995 ft | 480 kts | 71° |
| 2026-05-07 13:27 | 47.55560 | 11.12035 | 34991 ft | 481 kts | 70° |
| 2026-05-07 13:27 | 47.57783 | 11.21298 | 34991 ft | 481 kts | 71° |
| 2026-05-07 13:28 | 47.60015 | 11.30632 | 34993 ft | 480 kts | 71° |
| 2026-05-07 13:28 | 47.62224 | 11.39978 | 34987 ft | 481 kts | 71° |
| 2026-05-07 13:29 | 47.64277 | 11.49408 | 34982 ft | 481 kts | 74° |
| 2026-05-07 13:29 | 47.66148 | 11.58872 | 34995 ft | 481 kts | 75° |
| 2026-05-07 13:30 | 47.68032 | 11.68393 | 34998 ft | 481 kts | 74° |
| 2026-05-07 13:30 | 47.69952 | 11.77904 | 34999 ft | 481 kts | 74° |
| 2026-05-07 13:31 | 47.71824 | 11.87438 | 34993 ft | 481 kts | 75° |
| 2026-05-07 13:31 | 47.73566 | 11.96959 | 34991 ft | 481 kts | 77° |
| 2026-05-07 13:32 | 47.74983 | 12.06671 | 34994 ft | 481 kts | 81° |
| 2026-05-07 13:32 | 47.76221 | 12.16439 | 35001 ft | 481 kts | 81° |
| 2026-05-07 13:33 | 47.77506 | 12.26192 | 35005 ft | 481 kts | 80° |
| 2026-05-07 13:33 | 47.78860 | 12.35934 | 35014 ft | 481 kts | 79° |
| 2026-05-07 13:34 | 47.80873 | 12.50478 | 35016 ft | 481 kts | 80° |
| 2026-05-07 13:35 | 47.82190 | 12.60222 | 35013 ft | 480 kts | 80° |
| 2026-05-07 13:35 | 47.83493 | 12.69968 | 35010 ft | 480 kts | 78° |
| 2026-05-07 13:36 | 47.85813 | 12.79202 | 34997 ft | 481 kts | 62° |
| 2026-05-07 13:36 | 47.88945 | 12.88020 | 34994 ft | 482 kts | 63° |
| 2026-05-07 13:37 | 47.92070 | 12.96884 | 35001 ft | 483 kts | 63° |
| 2026-05-07 13:37 | 47.95186 | 13.05758 | 35002 ft | 483 kts | 63° |
| 2026-05-07 13:38 | 47.98277 | 13.14589 | 35002 ft | 483 kts | 63° |
| 2026-05-07 13:38 | 48.01382 | 13.23495 | 35004 ft | 484 kts | 63° |
| 2026-05-07 13:39 | 48.04483 | 13.32416 | 34986 ft | 484 kts | 63° |
| 2026-05-07 13:39 | 48.07572 | 13.41354 | 34987 ft | 485 kts | 63° |
| 2026-05-07 13:40 | 48.10668 | 13.50315 | 34992 ft | 485 kts | 63° |
| 2026-05-07 13:40 | 48.13738 | 13.59234 | 34993 ft | 485 kts | 64° |
| 2026-05-07 13:41 | 48.16821 | 13.68224 | 34993 ft | 486 kts | 64° |
| 2026-05-07 13:41 | 48.19907 | 13.77237 | 34996 ft | 486 kts | 64° |
| 2026-05-07 13:42 | 48.22982 | 13.86270 | 34982 ft | 487 kts | 64° |
| 2026-05-07 13:42 | 48.26027 | 13.95265 | 34990 ft | 487 kts | 64° |
| 2026-05-07 13:43 | 48.29091 | 14.04330 | 34983 ft | 487 kts | 64° |
| 2026-05-07 13:43 | 48.32146 | 14.13407 | 34992 ft | 487 kts | 64° |
| 2026-05-07 13:44 | 48.35190 | 14.22495 | 34990 ft | 487 kts | 64° |
| 2026-05-07 13:44 | 48.38217 | 14.31535 | 34989 ft | 487 kts | 65° |
| 2026-05-07 13:45 | 48.41254 | 14.40634 | 34967 ft | 487 kts | 65° |
| 2026-05-07 13:45 | 48.44296 | 14.49763 | 34972 ft | 488 kts | 65° |
| 2026-05-07 13:46 | 48.47325 | 14.58914 | 34972 ft | 488 kts | 65° |
| 2026-05-07 13:46 | 48.50340 | 14.68078 | 34963 ft | 488 kts | 66° |
| 2026-05-07 13:47 | 48.53329 | 14.77206 | 34966 ft | 488 kts | 66° |
| 2026-05-07 13:47 | 48.56342 | 14.86397 | 34972 ft | 488 kts | 66° |
| 2026-05-07 13:48 | 48.59353 | 14.95587 | 34938 ft | 489 kts | 66° |
| 2026-05-07 13:48 | 48.62353 | 15.04803 | 34944 ft | 489 kts | 66° |
| 2026-05-07 13:49 | 48.65320 | 15.13972 | 34944 ft | 489 kts | 66° |
| 2026-05-07 13:49 | 48.68296 | 15.23218 | 34947 ft | 489 kts | 66° |
| 2026-05-07 13:50 | 48.71269 | 15.32473 | 34947 ft | 489 kts | 66° |
| 2026-05-07 13:50 | 48.74213 | 15.41659 | 34959 ft | 488 kts | 67° |
| 2026-05-07 13:51 | 48.77163 | 15.50910 | 34931 ft | 487 kts | 67° |
| 2026-05-07 13:51 | 48.80104 | 15.60160 | 34936 ft | 487 kts | 67° |
| 2026-05-07 13:52 | 48.83039 | 15.69405 | 34935 ft | 486 kts | 67° |
| 2026-05-07 13:52 | 48.85940 | 15.78601 | 34939 ft | 486 kts | 67° |
| 2026-05-07 13:53 | 48.89294 | 15.87525 | 34946 ft | 489 kts | 58° |
| 2026-05-07 13:53 | 48.93153 | 15.96050 | 34956 ft | 489 kts | 58° |
| 2026-05-07 13:54 | 48.96999 | 16.04593 | 34925 ft | 489 kts | 58° |
| 2026-05-07 13:54 | 49.00841 | 16.13162 | 34939 ft | 490 kts | 58° |
| 2026-05-07 13:55 | 49.04657 | 16.21698 | 34954 ft | 491 kts | 58° |
| 2026-05-07 13:55 | 49.08497 | 16.30315 | 34953 ft | 491 kts | 59° |
| 2026-05-07 13:56 | 49.12330 | 16.38943 | 34958 ft | 491 kts | 59° |
| 2026-05-07 13:56 | 49.16150 | 16.47587 | 34940 ft | 491 kts | 59° |
| 2026-05-07 13:57 | 49.19949 | 16.56185 | 34943 ft | 492 kts | 59° |
| 2026-05-07 13:57 | 49.23768 | 16.64862 | 34902 ft | 492 kts | 59° |
| 2026-05-07 13:58 | 49.27580 | 16.73559 | 34914 ft | 493 kts | 59° |
| 2026-05-07 13:58 | 49.31396 | 16.82288 | 34916 ft | 493 kts | 59° |
| 2026-05-07 13:59 | 49.35180 | 16.90973 | 34919 ft | 493 kts | 59° |
| 2026-05-07 13:59 | 49.38984 | 16.99727 | 34926 ft | 493 kts | 59° |
| 2026-05-07 14:00 | 49.42781 | 17.08506 | 34932 ft | 493 kts | 60° |
| 2026-05-07 14:00 | 49.46573 | 17.17299 | 34937 ft | 493 kts | 60° |
| 2026-05-07 14:01 | 49.50359 | 17.26094 | 34907 ft | 493 kts | 60° |
| 2026-05-07 14:01 | 49.54115 | 17.34851 | 34643 ft | 494 kts | 60° |
| 2026-05-07 14:01 | 49.56002 | 17.39273 | 34413 ft | 494 kts | 60° |
| 2026-05-07 14:02 | 49.57885 | 17.43703 | 34174 ft | 495 kts | 60° |
| 2026-05-07 14:02 | 49.59771 | 17.48142 | 33935 ft | 495 kts | 60° |
| 2026-05-07 14:02 | 49.61659 | 17.52588 | 33661 ft | 496 kts | 60° |
| 2026-05-07 14:02 | 49.63549 | 17.57045 | 33384 ft | 496 kts | 60° |
| 2026-05-07 14:03 | 49.65433 | 17.61493 | 33109 ft | 496 kts | 60° |
| 2026-05-07 14:03 | 49.67327 | 17.65961 | 32834 ft | 496 kts | 60° |
| 2026-05-07 14:03 | 49.69188 | 17.70355 | 32576 ft | 497 kts | 60° |
| 2026-05-07 14:03 | 49.71078 | 17.74825 | 32307 ft | 497 kts | 60° |
| 2026-05-07 14:04 | 49.72963 | 17.79298 | 32052 ft | 497 kts | 60° |
| 2026-05-07 14:04 | 49.74846 | 17.83784 | 31795 ft | 497 kts | 60° |
| 2026-05-07 14:04 | 49.76726 | 17.88267 | 31546 ft | 497 kts | 60° |
| 2026-05-07 14:04 | 49.78606 | 17.92754 | 31285 ft | 497 kts | 60° |
| 2026-05-07 14:05 | 49.80483 | 17.97236 | 31029 ft | 495 kts | 60° |
| 2026-05-07 14:05 | 49.82352 | 18.01698 | 30779 ft | 493 kts | 61° |
| 2026-05-07 14:05 | 49.84207 | 18.06145 | 30529 ft | 490 kts | 61° |
| 2026-05-07 14:05 | 49.86023 | 18.10519 | 30279 ft | 488 kts | 61° |
| 2026-05-07 14:06 | 49.87852 | 18.14938 | 30047 ft | 486 kts | 61° |
| 2026-05-07 14:06 | 49.89670 | 18.19342 | 29898 ft | 483 kts | 62° |
| 2026-05-07 14:06 | 49.91231 | 18.23930 | 29894 ft | 479 kts | 71° |
| 2026-05-07 14:06 | 49.92319 | 18.28760 | 29601 ft | 470 kts | 81° |
| 2026-05-07 14:07 | 49.92925 | 18.33700 | 29331 ft | 462 kts | 90° |
| 2026-05-07 14:07 | 49.93086 | 18.38613 | 28902 ft | 451 kts | 98° |
| 2026-05-07 14:07 | 49.92956 | 18.43438 | 28301 ft | 445 kts | 99° |
| 2026-05-07 14:07 | 49.92813 | 18.48152 | 27697 ft | 441 kts | 99° |
| 2026-05-07 14:08 | 49.92664 | 18.52881 | 27179 ft | 437 kts | 99° |
| 2026-05-07 14:08 | 49.92511 | 18.57562 | 26624 ft | 433 kts | 99° |
| 2026-05-07 14:08 | 49.92482 | 18.62227 | 26277 ft | 431 kts | 90° |
| 2026-05-07 14:08 | 49.92862 | 18.66786 | 26004 ft | 423 kts | 88° |
| 2026-05-07 14:09 | 49.93243 | 18.71306 | 25412 ft | 423 kts | 88° |
| 2026-05-07 14:09 | 49.93616 | 18.75821 | 24829 ft | 422 kts | 88° |
| 2026-05-07 14:09 | 49.93981 | 18.80295 | 24258 ft | 422 kts | 88° |
| 2026-05-07 14:09 | 49.94349 | 18.84807 | 23700 ft | 422 kts | 88° |
| 2026-05-07 14:10 | 49.94716 | 18.89324 | 23094 ft | 421 kts | 88° |
| 2026-05-07 14:10 | 49.95084 | 18.93814 | 22578 ft | 417 kts | 88° |
| 2026-05-07 14:10 | 49.95452 | 18.98263 | 22038 ft | 414 kts | 88° |
| 2026-05-07 14:10 | 49.95816 | 19.02672 | 21558 ft | 409 kts | 87° |
| 2026-05-07 14:11 | 49.96172 | 19.07037 | 21066 ft | 406 kts | 87° |
| 2026-05-07 14:11 | 49.96523 | 19.11372 | 20575 ft | 403 kts | 87° |
| 2026-05-07 14:11 | 49.96868 | 19.15672 | 20069 ft | 400 kts | 87° |
| 2026-05-07 14:11 | 49.97209 | 19.19958 | 19567 ft | 399 kts | 86° |
| 2026-05-07 14:12 | 49.97545 | 19.24165 | 19054 ft | 397 kts | 86° |
| 2026-05-07 14:12 | 49.97883 | 19.28420 | 18536 ft | 396 kts | 86° |
| 2026-05-07 14:12 | 49.98220 | 19.32669 | 17977 ft | 396 kts | 86° |
| 2026-05-07 14:12 | 49.98553 | 19.36902 | 17430 ft | 394 kts | 86° |
| 2026-05-07 14:13 | 49.98883 | 19.41118 | 16899 ft | 392 kts | 86° |
| 2026-05-07 14:13 | 49.99211 | 19.45307 | 16368 ft | 390 kts | 86° |
| 2026-05-07 14:13 | 49.99534 | 19.49473 | 15827 ft | 388 kts | 86° |
| 2026-05-07 14:13 | 49.99856 | 19.53633 | 15322 ft | 386 kts | 86° |
| 2026-05-07 14:14 | 50.00168 | 19.57719 | 14807 ft | 385 kts | 86° |
| 2026-05-07 14:14 | 50.00481 | 19.61847 | 14288 ft | 385 kts | 86° |
| 2026-05-07 14:14 | 50.00791 | 19.65972 | 13758 ft | 384 kts | 86° |
| 2026-05-07 14:14 | 50.01099 | 19.70088 | 13190 ft | 382 kts | 85° |
| 2026-05-07 14:15 | 50.01406 | 19.74180 | 12657 ft | 380 kts | 85° |
| 2026-05-07 14:15 | 50.01709 | 19.78246 | 12113 ft | 377 kts | 85° |
| 2026-05-07 14:15 | 50.02009 | 19.82286 | 11570 ft | 375 kts | 85° |
| 2026-05-07 14:15 | 50.02303 | 19.86223 | 11053 ft | 371 kts | 85° |
| 2026-05-07 14:16 | 50.02598 | 19.90172 | 10480 ft | 360 kts | 85° |
| 2026-05-07 14:16 | 50.02874 | 19.93903 | 10291 ft | 334 kts | 85° |
| 2026-05-07 14:16 | 50.03129 | 19.97362 | 10078 ft | 312 kts | 85° |
| 2026-05-07 14:16 | 50.03369 | 20.00665 | 9638 ft | 302 kts | 85° |
| 2026-05-07 14:17 | 50.03602 | 20.03901 | 9514 ft | 302 kts | 85° |
| 2026-05-07 14:17 | 50.03835 | 20.07142 | 9374 ft | 301 kts | 86° |
| 2026-05-07 14:17 | 50.04069 | 20.10407 | 8838 ft | 305 kts | 85° |
| 2026-05-07 14:17 | 50.04303 | 20.13659 | 8509 ft | 301 kts | 85° |
| 2026-05-07 14:18 | 50.04527 | 20.16791 | 8272 ft | 286 kts | 85° |
| 2026-05-07 14:18 | 50.04899 | 20.19725 | 8011 ft | 272 kts | 67° |
| 2026-05-07 14:18 | 50.05987 | 20.22037 | 7657 ft | 262 kts | 36° |
| 2026-05-07 14:18 | 50.07605 | 20.23281 | 7263 ft | 266 kts | 8° |
| 2026-05-07 14:19 | 50.09415 | 20.23248 | 6868 ft | 255 kts | 342° |
| 2026-05-07 14:19 | 50.10999 | 20.22175 | 6399 ft | 245 kts | 320° |
| 2026-05-07 14:19 | 50.12163 | 20.20320 | 5920 ft | 238 kts | 298° |
| 2026-05-07 14:19 | 50.12788 | 20.17968 | 5617 ft | 233 kts | 278° |
| 2026-05-07 14:20 | 50.12841 | 20.15487 | 5126 ft | 237 kts | 258° |
| 2026-05-07 14:20 | 50.12499 | 20.12997 | 4884 ft | 234 kts | 257° |
| 2026-05-07 14:20 | 50.12173 | 20.10542 | 4647 ft | 229 kts | 257° |
| 2026-05-07 14:20 | 50.11846 | 20.08123 | 4375 ft | 227 kts | 258° |
| 2026-05-07 14:21 | 50.11519 | 20.05732 | 4068 ft | 222 kts | 257° |
| 2026-05-07 14:21 | 50.11210 | 20.03453 | 3783 ft | 206 kts | 257° |
| 2026-05-07 14:21 | 50.10922 | 20.01364 | 3555 ft | 189 kts | 257° |
| 2026-05-07 14:21 | 50.10663 | 19.99458 | 3375 ft | 174 kts | 257° |
| 2026-05-07 14:22 | 50.10416 | 19.97651 | 3108 ft | 173 kts | 257° |
| 2026-05-07 14:22 | 50.10170 | 19.95845 | 2893 ft | 167 kts | 257° |
| 2026-05-07 14:22 | 50.09931 | 19.94117 | 2671 ft | 161 kts | 256° |
| 2026-05-07 14:22 | 50.09709 | 19.92485 | 2491 ft | 145 kts | 256° |
| 2026-05-07 14:23 | 50.09497 | 19.90987 | 2225 ft | 138 kts | 256° |
| 2026-05-07 14:23 | 50.09303 | 19.89578 | 2026 ft | 130 kts | 256° |
| 2026-05-07 14:23 | 50.09112 | 19.88194 | 1895 ft | 135 kts | 257° |
| 2026-05-07 14:23 | 50.08916 | 19.86744 | 1716 ft | 137 kts | 255° |
| 2026-05-07 14:24 | 50.08717 | 19.85283 | 1510 ft | 143 kts | 257° |
| 2026-05-07 14:24 | 50.08505 | 19.83787 | 1341 ft | 139 kts | 256° |
| 2026-05-07 14:24 | 50.08304 | 19.82310 | 1140 ft | 139 kts | 256° |
| 2026-05-07 14:24 | 50.08102 | 19.80838 | 962 ft | 139 kts | 255° |
| 2026-05-07 14:25 | 50.07901 | 19.79395 | 807 ft | 130 kts | 254° |
| 2026-05-07 14:25 | 50.07720 | 19.78126 | 895 ft | 123 kts | 254° |
| 2026-05-07 14:25 | 50.07516 | 19.76758 | 1601 ft | 142 kts | 255° |
| 2026-05-07 14:25 | 50.07245 | 19.75130 | 2374 ft | 160 kts | 256° |